Time;durP1;ratioP1;P1;durP2;ratioP2;P2;SDS_P1;SDS_P2;PMS_P1;PMS_P2;Temp;Humidity;BMP_temperature;BMP_pressure;BME280_temperature;BME280_humidity;BME280_pressure;Samples;Min_cycle;Max_cycle;Signal;HPM_P1;HPM_P2
2022/03/01 00:00:29;;;;;;;60.80;24.92;;;;;;;-0.35;68.30;95859.72;3312107;28;10001515;-83
2022/03/01 00:02:55;;;;;;;52.10;22.10;;;;;;;-0.35;68.58;95891.00;5056560;28;20061;-83
2022/03/01 00:05:20;;;;;;;50.47;23.20;;;;;;;-1.51;68.16;95675.28;5054393;28;20098;-82
2022/03/01 00:07:46;;;;;;;60.75;23.80;;;;;;;-0.94;68.95;95770.66;5037826;28;20061;-82
2022/03/01 00:10:11;;;;;;;58.13;22.65;;;;;;;-1.37;68.39;95697.00;5038464;28;20040;-82
2022/03/01 00:12:37;;;;;;;51.28;23.02;;;;;;;-1.60;68.53;95655.56;5056287;28;20032;-82
2022/03/01 00:15:04;;;;;;;53.45;22.27;;;;;;;-0.59;67.98;95802.78;5055793;28;20044;-82
2022/03/01 00:17:29;;;;;;;54.10;21.92;;;;;;;-0.89;68.44;95773.50;5038124;28;20029;-83
2022/03/01 00:19:55;;;;;;;63.60;26.02;;;;;;;-0.80;69.68;95782.81;5054723;28;20040;-82
2022/03/01 00:22:20;;;;;;;60.30;24.40;;;;;;;-0.17;68.68;95886.13;5037307;28;20037;-82
2022/03/01 00:24:46;;;;;;;53.83;23.80;;;;;;;-0.42;69.08;95844.03;5055963;28;20068;-83
2022/03/01 00:27:11;;;;;;;55.95;21.08;;;;;;;-0.51;69.20;95839.13;5054581;28;20059;-82
2022/03/01 00:29:47;;;;;;;50.40;19.13;;;;;;;-0.91;68.83;95778.91;3049812;28;10001722;-82
2022/03/01 00:32:13;;;;;;;51.47;20.70;;;;;;;-0.84;68.63;95752.94;2616864;28;10001611;-82
2022/03/01 00:34:38;;;;;;;47.45;18.13;;;;;;;-1.18;68.68;95709.41;5075836;28;20092;-83
2022/03/01 00:37:04;;;;;;;38.70;16.33;;;;;;;-0.24;68.02;95858.41;5075744;28;20047;-83
2022/03/01 00:39:30;;;;;;;39.85;15.35;;;;;;;-1.33;68.39;95693.06;5075185;28;20039;-83
2022/03/01 00:41:55;;;;;;;29.63;12.55;;;;;;;-1.43;67.69;95684.75;5076263;28;20103;-83
2022/03/01 00:44:21;;;;;;;26.88;11.90;;;;;;;-0.99;67.95;95726.19;5075352;28;20427;-83
2022/03/01 00:46:46;;;;;;;28.55;12.60;;;;;;;-1.79;68.33;95589.41;5075996;28;20036;-83
2022/03/01 00:49:12;;;;;;;24.20;12.35;;;;;;;-0.89;68.64;95752.69;5075668;28;20414;-83
2022/03/01 00:51:37;;;;;;;25.05;11.15;;;;;;;-0.55;68.03;95797.03;5073861;28;20161;-83
2022/03/01 00:54:03;;;;;;;24.65;11.30;;;;;;;-0.27;68.77;95845.75;5075480;28;20046;-83
2022/03/01 00:56:30;;;;;;;21.05;10.35;;;;;;;-0.40;68.26;95831.63;5057551;28;20036;-82
2022/03/01 00:58:56;;;;;;;18.52;9.57;;;;;;;-1.30;68.90;95672.69;5073883;28;20095;-82
2022/03/01 01:01:21;;;;;;;20.77;9.90;;;;;;;-0.98;68.99;95744.19;5073693;28;20041;-82
2022/03/01 01:03:47;;;;;;;21.38;9.23;;;;;;;-1.44;69.53;95670.13;5056766;28;20155;-82
2022/03/01 01:06:13;;;;;;;20.60;9.68;;;;;;;-1.02;70.80;95742.16;5075320;28;20036;-82
2022/03/01 01:08:38;;;;;;;17.98;9.75;;;;;;;-0.61;70.00;95815.22;5076013;28;20032;-82
2022/03/01 01:11:22;;;;;;;21.93;7.20;;;;;;;-1.43;69.39;95695.16;1919202;28;10022846;-83
2022/03/01 01:13:47;;;;;;;16.05;8.15;;;;;;;-0.98;69.45;95767.63;4011454;28;10001203;-83
2022/03/01 01:16:13;;;;;;;17.55;8.30;;;;;;;-0.79;70.84;95820.88;5074701;28;20526;-82
2022/03/01 01:18:43;;;;;;;18.00;9.05;;;;;;;-1.22;70.60;95731.59;5076369;28;20039;-82
2022/03/01 01:21:12;;;;;;;20.15;7.93;;;;;;;-1.33;69.83;95779.72;5075578;28;20024;-82
2022/03/01 01:23:41;;;;;;;11.82;7.35;;;;;;;-1.43;69.72;95768.81;5075803;28;20047;-82
2022/03/01 01:26:07;;;;;;;15.05;7.97;;;;;;;-1.48;70.30;95745.16;5057388;28;20043;-83
2022/03/01 01:28:32;;;;;;;12.45;6.93;;;;;;;-1.52;70.22;95720.47;5075237;28;20511;-83
2022/03/01 01:30:58;;;;;;;14.95;6.85;;;;;;;-1.42;69.63;95741.00;5075155;28;20475;-82
2022/03/01 01:33:23;;;;;;;13.65;7.75;;;;;;;-1.46;70.55;95773.59;5056953;28;20036;-82
2022/03/01 01:35:49;;;;;;;11.88;6.78;;;;;;;-1.41;70.28;95753.00;5075170;28;20060;-82
2022/03/01 01:38:14;;;;;;;13.25;6.85;;;;;;;-1.92;70.69;95695.06;5075838;28;20028;-82
2022/03/01 01:40:39;;;;;;;12.80;6.63;;;;;;;-1.94;70.63;95664.06;5073963;28;20039;-82
2022/03/01 01:43:06;;;;;;;10.45;6.28;;;;;;;-2.22;71.17;95632.78;5073327;28;20526;-82
2022/03/01 01:45:33;;;;;;;11.98;6.55;;;;;;;-1.55;71.36;95736.47;5075289;28;20047;-82
2022/03/01 01:48:00;;;;;;;10.88;6.38;;;;;;;-2.49;70.96;95582.31;5073598;28;20491;-82
2022/03/01 01:50:27;;;;;;;12.30;6.20;;;;;;;-3.13;70.84;95512.06;5075493;28;20068;-83
2022/03/01 01:52:54;;;;;;;10.35;6.30;;;;;;;-1.77;71.07;95694.03;5027231;28;20054;-82
2022/03/01 01:55:25;;;;;;;10.15;6.60;;;;;;;-1.75;72.63;95699.03;424531;28;10022340;-82
2022/03/01 01:57:51;;;;;;;12.98;6.85;;;;;;;-1.38;72.73;95757.84;5075544;28;20298;-82
2022/03/01 02:00:17;;;;;;;11.20;6.13;;;;;;;-1.64;72.36;95714.97;5073683;28;20037;-82
2022/03/01 02:02:43;;;;;;;10.45;5.93;;;;;;;-1.28;72.32;95753.94;5077033;28;20056;-82
2022/03/01 02:05:10;;;;;;;10.80;6.43;;;;;;;-1.47;71.84;95717.34;5079927;28;20043;-83
2022/03/01 02:07:36;;;;;;;14.00;6.95;;;;;;;-2.19;72.40;95629.00;5079166;28;20032;-82
2022/03/01 02:10:04;;;;;;;10.75;6.22;;;;;;;-1.92;72.51;95663.88;5077822;28;20032;-84
2022/03/01 02:12:30;;;;;;;12.32;6.78;;;;;;;-1.56;72.00;95711.44;5079219;28;20103;-83
2022/03/01 02:14:55;;;;;;;11.52;6.70;;;;;;;-2.00;72.62;95664.81;5079537;28;20040;-82
2022/03/01 02:17:21;;;;;;;12.27;6.22;;;;;;;-1.96;71.54;95671.22;5078281;28;20035;-83
2022/03/01 02:19:48;;;;;;;11.35;6.25;;;;;;;-2.14;72.39;95645.66;5077990;28;20087;-83
2022/03/01 02:22:14;;;;;;;11.88;6.95;;;;;;;-2.18;72.22;95623.63;5061023;28;20058;-83
2022/03/01 02:24:39;;;;;;;12.02;7.10;;;;;;;-1.15;71.74;95794.13;5079563;28;20487;-83
2022/03/01 02:27:05;;;;;;;11.77;6.68;;;;;;;-1.25;71.59;95758.78;5078921;28;20119;-83
2022/03/01 02:29:32;;;;;;;12.30;6.78;;;;;;;-2.53;71.96;95560.31;5078716;28;20400;-82
2022/03/01 02:32:01;;;;;;;11.55;6.60;;;;;;;-2.72;72.09;95525.34;5059612;28;20029;-82
2022/03/01 02:34:26;;;;;;;12.68;7.03;;;;;;;-2.56;71.40;95585.81;5060550;28;20124;-83
2022/03/01 02:37:06;;;;;;;10.02;5.53;;;;;;;-2.31;71.83;95638.25;3549189;28;10021463;-83
2022/03/01 02:39:31;;;;;;;11.38;6.75;;;;;;;-2.48;71.67;95599.50;2269387;28;10001894;-82
2022/03/01 02:41:57;;;;;;;13.43;6.57;;;;;;;-2.13;71.77;95652.44;5077373;28;20024;-82
2022/03/01 02:44:22;;;;;;;13.20;7.53;;;;;;;-2.02;71.33;95666.78;5061251;28;20040;-82
2022/03/01 02:46:48;;;;;;;11.48;6.40;;;;;;;-1.81;71.32;95731.78;5058712;28;20119;-82
2022/03/01 02:49:14;;;;;;;13.40;7.15;;;;;;;-2.24;71.95;95689.31;5076002;28;20044;-83
2022/03/01 02:51:39;;;;;;;14.00;7.05;;;;;;;-1.78;72.74;95785.22;5076032;28;20032;-82
2022/03/01 02:54:06;;;;;;;12.57;6.18;;;;;;;-2.55;72.05;95673.13;5075994;28;20043;-82
2022/03/01 02:56:31;;;;;;;11.13;6.50;;;;;;;-2.72;71.90;95639.56;5057999;28;20418;-82
2022/03/01 02:58:58;;;;;;;10.52;5.68;;;;;;;-2.81;72.04;95604.28;5075925;28;20024;-82
2022/03/01 03:01:25;;;;;;;10.85;6.45;;;;;;;-1.99;72.47;95711.41;5059644;28;20090;-82
2022/03/01 03:03:51;;;;;;;9.57;5.97;;;;;;;-2.38;72.74;95677.97;5077915;28;20048;-82
2022/03/01 03:06:17;;;;;;;10.90;6.63;;;;;;;-1.46;72.77;95784.00;5078424;28;20126;-82
2022/03/01 03:08:43;;;;;;;13.48;6.50;;;;;;;-2.47;71.56;95673.03;5059739;28;20070;-82
2022/03/01 03:11:09;;;;;;;13.23;6.25;;;;;;;-1.67;71.38;95790.75;5077292;28;20029;-82
2022/03/01 03:13:34;;;;;;;14.40;7.00;;;;;;;-2.51;72.05;95651.81;5077121;28;20101;-83
2022/03/01 03:16:00;;;;;;;14.25;7.18;;;;;;;-1.81;71.86;95751.78;5078895;28;20127;-82
2022/03/01 03:18:43;;;;;;;11.87;6.93;;;;;;;-2.11;71.92;95728.44;1912612;28;10022899;-82
2022/03/01 03:21:10;;;;;;;11.60;7.05;;;;;;;-2.27;71.51;95684.47;4013566;28;10001338;-83
2022/03/01 03:23:36;;;;;;;12.98;7.32;;;;;;;-2.80;71.64;95628.47;5078565;28;20523;-83
2022/03/01 03:26:02;;;;;;;15.02;7.70;;;;;;;-2.49;71.43;95675.81;5078110;28;20043;-82
2022/03/01 03:28:27;;;;;;;14.65;7.20;;;;;;;-3.23;72.01;95545.28;5077660;28;20093;-83
2022/03/01 03:30:53;;;;;;;15.43;8.15;;;;;;;-1.54;72.72;95797.91;5079021;28;20059;-83
2022/03/01 03:33:18;;;;;;;16.27;7.70;;;;;;;-1.85;72.45;95740.16;5077486;28;20210;-82
2022/03/01 03:35:44;;;;;;;13.15;7.10;;;;;;;-2.20;71.79;95726.13;5078365;28;20032;-82
2022/03/01 03:38:09;;;;;;;10.40;5.72;;;;;;;-1.86;72.13;95764.53;5059447;28;20028;-83
2022/03/01 03:40:35;;;;;;;11.02;5.88;;;;;;;-3.13;72.52;95576.13;5076873;28;20058;-82
2022/03/01 03:43:00;;;;;;;11.23;6.22;;;;;;;-2.54;73.00;95651.38;5060221;28;20560;-83
2022/03/01 03:45:26;;;;;;;10.70;6.25;;;;;;;-2.77;71.71;95635.91;5077167;28;20058;-83
2022/03/01 03:47:51;;;;;;;13.00;6.63;;;;;;;-2.71;72.37;95645.56;5077976;28;20507;-83
2022/03/01 03:50:17;;;;;;;16.90;8.63;;;;;;;-1.74;71.45;95769.06;5076753;28;20028;-82
2022/03/01 03:52:42;;;;;;;20.33;11.50;;;;;;;-2.04;71.76;95767.50;5077544;28;20032;-83
2022/03/01 03:55:10;;;;;;;28.73;12.48;;;;;;;-2.90;71.96;95661.69;5077526;28;20924;-82
2022/03/01 03:57:36;;;;;;;31.73;13.45;;;;;;;-2.31;71.34;95768.97;5076177;28;20031;-82
2022/03/01 04:00:15;;;;;;;26.27;13.07;;;;;;;-2.03;72.06;95789.91;1596592;28;10022793;-82
2022/03/01 04:02:42;;;;;;;32.45;13.80;;;;;;;-2.43;72.34;95713.22;4026402;28;10001338;-82
2022/03/01 04:05:09;;;;;;;37.17;15.93;;;;;;;-2.38;71.52;95709.13;5076792;28;20033;-82
2022/03/01 04:07:35;;;;;;;32.13;14.48;;;;;;;-3.05;71.10;95655.69;5079003;28;20036;-82
2022/03/01 04:10:00;;;;;;;36.05;15.43;;;;;;;-3.18;71.73;95648.50;5078787;28;20055;-82
2022/03/01 04:12:26;;;;;;;35.78;14.88;;;;;;;-1.76;72.15;95797.06;5079185;28;20033;-82
2022/03/01 04:14:51;;;;;;;39.22;14.32;;;;;;;-2.41;71.21;95713.88;5079147;28;20110;-82
2022/03/01 04:17:16;;;;;;;29.25;13.55;;;;;;;-3.29;71.47;95586.69;5078675;28;20040;-82
2022/03/01 04:19:42;;;;;;;22.90;12.18;;;;;;;-2.56;72.64;95716.47;5079671;28;20036;-83
2022/03/01 04:22:08;;;;;;;23.63;12.48;;;;;;;-2.65;73.02;95675.19;5079405;28;20032;-82
2022/03/01 04:24:33;;;;;;;22.58;11.27;;;;;;;-2.58;72.81;95682.06;5060644;28;20040;-82
2022/03/01 04:26:59;;;;;;;17.27;10.38;;;;;;;-2.94;72.63;95618.88;5076426;28;20062;-83
2022/03/01 04:29:24;;;;;;;21.52;10.40;;;;;;;-3.07;72.80;95588.38;5075301;28;20431;-83
2022/03/01 04:31:50;;;;;;;18.80;9.32;;;;;;;-1.77;72.82;95798.06;5074438;28;20063;-82
2022/03/01 04:34:16;;;;;;;24.27;11.27;;;;;;;-2.45;72.65;95686.66;5075568;28;20082;-82
2022/03/01 04:36:41;;;;;;;35.95;18.20;;;;;;;-2.10;71.79;95730.06;5073375;28;20052;-82
2022/03/01 04:39:07;;;;;;;25.35;13.80;;;;;;;-3.41;71.16;95544.81;5023720;28;20047;-82
2022/03/01 04:41:38;;;;;;;;;;;;;;;-1.92;71.11;95786.06;1523293;28;10022022;-82
2022/03/01 04:44:05;;;;;;;42.47;22.10;;;;;;;-2.90;70.25;95648.72;4011528;28;10001200;-82
2022/03/01 04:46:32;;;;;;;53.38;27.27;;;;;;;-3.29;70.54;95654.94;5073751;28;20041;-83
2022/03/01 04:48:57;;;;;;;56.10;30.55;;;;;;;-2.32;70.43;95785.53;5057165;28;20442;-82
2022/03/01 04:51:23;;;;;;;61.47;27.88;;;;;;;-2.21;70.55;95808.44;5074070;28;20043;-82
2022/03/01 04:53:49;;;;;;;57.83;24.48;;;;;;;-2.75;71.50;95735.19;5075798;28;20086;-83
2022/03/01 04:56:15;;;;;;;46.55;21.30;;;;;;;-3.37;71.17;95639.44;5075582;28;20041;-82
2022/03/01 04:58:40;;;;;;;47.13;20.95;;;;;;;-3.90;71.34;95581.56;5074597;28;20050;-82
2022/03/01 05:01:06;;;;;;;43.97;20.88;;;;;;;-2.68;71.97;95769.03;5074994;28;20024;-82
2022/03/01 05:03:31;;;;;;;40.28;18.70;;;;;;;-2.44;71.50;95805.16;5056717;28;20056;-82
2022/03/01 05:05:57;;;;;;;47.97;20.88;;;;;;;-3.65;72.21;95633.19;5058086;28;20017;-82
2022/03/01 05:08:22;;;;;;;49.28;19.25;;;;;;;-3.99;72.14;95584.38;5075770;28;20029;-83
2022/03/01 05:10:48;;;;;;;38.50;16.90;;;;;;;-2.65;72.25;95774.66;5076851;28;20041;-83
2022/03/01 05:13:13;;;;;;;36.55;17.50;;;;;;;-3.85;71.64;95588.00;5058602;28;20035;-83
2022/03/01 05:15:39;;;;;;;39.25;17.83;;;;;;;-3.43;72.04;95647.13;5076666;28;20392;-83
2022/03/01 05:18:05;;;;;;;36.28;16.17;;;;;;;-3.35;71.29;95662.56;5077932;28;20480;-83
2022/03/01 05:20:32;;;;;;;31.27;15.48;;;;;;;-2.35;71.72;95820.47;5075901;28;20115;-82
2022/03/01 05:22:57;;;;;;;29.63;14.48;;;;;;;-2.46;71.92;95781.13;5058826;28;20024;-83
2022/03/01 05:25:23;;;;;;;25.92;13.65;;;;;;;-2.26;71.87;95823.78;5077073;28;20525;-82
2022/03/01 05:27:51;;;;;;;30.33;14.10;;;;;;;-3.14;71.75;95706.84;5058558;28;20036;-82
2022/03/01 05:30:35;;;;;;;24.73;12.28;;;;;;;-2.27;71.79;95827.38;2312041;28;10023573;-82
2022/03/01 05:33:07;;;;;;;25.17;11.95;;;;;;;-2.32;71.24;95821.91;3661235;28;10001581;-83
2022/03/01 05:35:33;;;;;;;28.38;13.68;;;;;;;-3.16;71.43;95701.00;5038478;28;20033;-82
2022/03/01 05:37:58;;;;;;;27.85;11.35;;;;;;;-3.01;70.87;95732.16;5039122;28;20124;-82
2022/03/01 05:40:29;;;;;;;24.13;11.18;;;;;;;-2.43;72.05;95822.31;5055279;28;20037;-82
2022/03/01 05:42:56;;;;;;;21.00;10.82;;;;;;;-2.27;72.17;95842.13;5055999;28;20162;-82
2022/03/01 05:45:21;;;;;;;18.10;9.25;;;;;;;-2.86;71.07;95736.41;5058640;28;20067;-83
2022/03/01 05:47:48;;;;;;;14.07;8.38;;;;;;;-2.29;71.26;95826.75;5056297;28;20033;-82
2022/03/01 05:50:15;;;;;;;16.35;7.60;;;;;;;-3.07;70.88;95699.16;5056758;28;20040;-82
2022/03/01 05:52:41;;;;;;;19.88;7.72;;;;;;;-2.88;70.56;95727.19;5058027;28;20114;-83
2022/03/01 05:55:08;;;;;;;13.82;7.38;;;;;;;-2.77;70.53;95722.38;5041730;28;20067;-84
2022/03/01 05:57:34;;;;;;;19.52;9.02;;;;;;;-2.90;70.50;95703.22;5039858;28;20029;-83
2022/03/01 06:00:00;;;;;;;13.07;7.45;;;;;;;-2.58;69.75;95741.81;5040928;28;20527;-83
2022/03/01 06:02:26;;;;;;;19.00;8.00;;;;;;;-3.00;69.71;95664.53;5059519;28;20124;-84
2022/03/01 06:04:52;;;;;;;16.02;7.57;;;;;;;-2.62;69.50;95739.75;5059172;28;20122;-84
2022/03/01 06:07:19;;;;;;;20.13;7.70;;;;;;;-2.84;69.46;95672.16;5040487;28;20055;-84
2022/03/01 06:09:44;;;;;;;14.13;7.22;;;;;;;-2.11;69.56;95784.81;5056802;28;20060;-84
2022/03/01 06:12:10;;;;;;;18.63;8.10;;;;;;;-1.61;69.00;95847.25;5039038;28;20033;-83
2022/03/01 06:14:35;;;;;;;15.35;7.90;;;;;;;-2.89;70.25;95652.88;5040997;28;20171;-84
2022/03/01 06:17:01;;;;;;;14.68;7.25;;;;;;;-2.49;69.92;95688.78;5057725;28;20453;-84
2022/03/01 06:19:26;;;;;;;14.75;7.03;;;;;;;-2.08;70.19;95742.88;5056205;28;20033;-85
2022/03/01 06:21:52;;;;;;;16.08;7.47;;;;;;;-2.74;69.19;95672.69;5058347;28;20443;-83
2022/03/01 06:24:18;;;;;;;13.50;7.90;;;;;;;-3.90;70.02;95472.75;5056416;28;20116;-84
2022/03/01 06:26:44;;;;;;;14.13;7.35;;;;;;;-3.41;69.46;95494.72;5040331;28;20041;-84
2022/03/01 06:29:10;;;;;;;17.08;8.10;;;;;;;-1.84;69.89;95758.16;5040666;28;20036;-84
2022/03/01 06:31:35;;;;;;;13.18;7.30;;;;;;;-2.83;69.75;95631.44;5055978;28;20435;-85
2022/03/01 06:34:01;;;;;;;15.85;8.73;;;;;;;-3.37;69.46;95540.09;5039508;28;20029;-82
2022/03/01 06:36:26;;;;;;;16.17;8.20;;;;;;;-2.30;68.67;95684.03;5038651;28;20025;-84
2022/03/01 06:38:52;;;;;;;15.65;9.27;;;;;;;-1.50;68.88;95793.13;5054996;28;20159;-84
2022/03/01 06:41:18;;;;;;;16.75;8.07;;;;;;;-1.21;68.52;95790.44;5058165;28;20036;-84
2022/03/01 06:43:44;;;;;;;14.07;8.07;;;;;;;-2.15;68.35;95635.44;5057193;28;20050;-84
2022/03/01 06:46:09;;;;;;;15.45;9.10;;;;;;;-1.28;69.07;95774.75;5041346;28;20033;-83
2022/03/01 06:48:35;;;;;;;19.63;9.00;;;;;;;-2.37;68.71;95582.66;5057821;28;20044;-84
2022/03/01 06:51:02;;;;;;;15.52;8.65;;;;;;;-1.62;68.10;95757.22;5043048;28;20124;-84
2022/03/01 06:53:27;;;;;;;13.00;7.63;;;;;;;-2.78;66.88;95515.69;5061996;28;20051;-84
2022/03/01 06:55:53;;;;;;;15.13;8.05;;;;;;;-1.27;67.96;95784.19;5063331;28;20044;-84
2022/03/01 06:58:18;;;;;;;11.60;7.63;;;;;;;-1.89;67.96;95640.09;5046479;28;20101;-84
2022/03/01 07:00:44;;;;;;;16.80;8.23;;;;;;;-3.02;66.56;95512.59;5065298;28;20050;-84
2022/03/01 07:03:10;;;;;;;15.20;7.95;;;;;;;-1.06;66.82;95774.75;5062673;28;20061;-83
2022/03/01 07:05:36;;;;;;;12.05;7.50;;;;;;;-0.49;66.07;95842.38;5061176;28;20033;-83
2022/03/01 07:08:02;;;;;;;12.85;6.88;;;;;;;-1.99;66.49;95636.03;5058704;28;20060;-84
2022/03/01 07:10:28;;;;;;;17.00;7.88;;;;;;;-0.84;66.76;95782.34;5058879;28;20039;-84
2022/03/01 07:12:54;;;;;;;16.95;7.32;;;;;;;-1.12;66.69;95721.66;5060050;28;20040;-82
2022/03/01 07:15:19;;;;;;;13.68;7.13;;;;;;;-0.44;65.58;95819.97;5042058;28;20074;-82
2022/03/01 07:17:46;;;;;;;15.25;6.93;;;;;;;-0.67;65.60;95776.88;5057182;28;20040;-82
2022/03/01 07:20:12;;;;;;;18.20;8.35;;;;;;;-0.28;66.13;95850.13;5058268;28;20076;-82
2022/03/01 07:22:38;;;;;;;17.90;7.18;;;;;;;-0.84;65.58;95758.16;5057529;28;20198;-81
2022/03/01 07:25:05;;;;;;;17.27;8.05;;;;;;;-0.70;65.84;95752.03;5058107;28;20577;-82
2022/03/01 07:27:31;;;;;;;22.15;9.50;;;;;;;-1.07;65.72;95731.53;5053918;28;20423;-82
2022/03/01 07:29:57;;;;;;;20.90;9.32;;;;;;;-0.43;65.43;95802.53;5056487;28;20040;-82
2022/03/01 07:32:23;;;;;;;12.50;6.38;;;;;;;-0.91;64.81;95734.63;5056922;28;20033;-81
2022/03/01 07:34:48;;;;;;;12.15;6.65;;;;;;;-0.49;64.98;95795.47;5055855;28;20029;-81
2022/03/01 07:37:14;;;;;;;16.88;6.20;;;;;;;-0.86;63.98;95744.50;5057214;28;20095;-81
2022/03/01 07:39:39;;;;;;;12.88;6.68;;;;;;;-0.61;64.70;95760.53;5057570;28;20029;-81
2022/03/01 07:42:05;;;;;;;18.17;7.35;;;;;;;-0.86;66.09;95776.56;5056543;28;20079;-82
2022/03/01 07:44:31;;;;;;;15.27;6.45;;;;;;;-0.31;64.16;95813.25;5039494;28;20203;-83
2022/03/01 07:46:57;;;;;;;18.63;6.75;;;;;;;0.00;65.23;95845.72;5038655;28;20033;-83
2022/03/01 07:49:23;;;;;;;12.30;6.90;;;;;;;-1.25;64.68;95620.06;5037817;28;20039;-83
2022/03/01 07:51:49;;;;;;;17.77;8.20;;;;;;;-0.53;65.87;95752.53;5055209;28;20037;-83
2022/03/01 07:54:14;;;;;;;14.15;6.07;;;;;;;-1.09;64.43;95651.00;5035800;28;20025;-83
2022/03/01 07:56:40;;;;;;;14.48;7.80;;;;;;;-0.95;63.65;95688.34;5053984;28;20025;-81
2022/03/01 07:59:06;;;;;;;14.63;8.02;;;;;;;-0.44;65.38;95772.25;5036230;28;20037;-81
2022/03/01 08:01:32;;;;;;;14.55;7.47;;;;;;;-0.19;64.50;95786.44;5035818;28;20159;-82
2022/03/01 08:03:57;;;;;;;15.30;7.30;;;;;;;0.13;64.40;95824.13;5034313;28;20059;-82
2022/03/01 08:06:23;;;;;;;14.88;7.95;;;;;;;0.05;64.79;95813.84;5052275;28;20400;-83
2022/03/01 08:08:48;;;;;;;18.25;8.98;;;;;;;0.10;65.19;95840.16;5039007;28;20049;-83
2022/03/01 08:11:14;;;;;;;18.20;8.05;;;;;;;-0.15;64.79;95774.63;5039242;28;20033;-83
2022/03/01 08:13:39;;;;;;;18.00;8.45;;;;;;;-0.37;64.61;95736.59;5056967;28;20025;-83
2022/03/01 08:16:05;;;;;;;17.70;9.60;;;;;;;-0.19;63.97;95755.16;5057269;28;20115;-82
2022/03/01 08:18:31;;;;;;;30.08;10.45;;;;;;;-0.14;64.45;95754.56;5038030;28;20025;-82
2022/03/01 08:21:00;;;;;;;32.88;12.75;;;;;;;-0.47;64.45;95712.72;5057294;28;20096;-82
2022/03/01 08:23:26;;;;;;;17.10;9.60;;;;;;;0.43;64.97;95845.56;5057580;28;20044;-82
2022/03/01 08:25:52;;;;;;;19.63;10.30;;;;;;;0.17;64.07;95804.47;5057299;28;20037;-82
2022/03/01 08:28:18;;;;;;;19.30;9.77;;;;;;;-0.01;64.05;95750.25;5037773;28;20140;-82
2022/03/01 08:30:46;;;;;;;18.70;8.55;;;;;;;-0.35;64.23;95713.78;5057343;28;20053;-81
2022/03/01 08:33:11;;;;;;;16.00;7.30;;;;;;;-0.79;64.29;95633.38;5056601;28;20039;-82
2022/03/01 08:35:37;;;;;;;14.25;7.45;;;;;;;-0.09;64.33;95754.81;5058960;28;20033;-82
2022/03/01 08:38:04;;;;;;;12.55;6.68;;;;;;;-0.66;64.07;95625.63;5058246;28;20040;-82
2022/03/01 08:40:32;;;;;;;18.48;8.15;;;;;;;-0.17;64.06;95685.41;5061173;28;20021;-82
2022/03/01 08:42:57;;;;;;;18.63;8.27;;;;;;;-0.14;63.57;95715.47;5043476;28;20067;-82
2022/03/01 08:45:23;;;;;;;14.05;6.97;;;;;;;0.00;63.96;95724.97;5059151;28;20037;-82
2022/03/01 08:47:51;;;;;;;16.15;7.65;;;;;;;0.12;64.05;95744.28;5057224;28;20029;-80
2022/03/01 08:50:19;;;;;;;17.02;7.10;;;;;;;0.04;64.22;95738.41;5037437;28;20033;-81
2022/03/01 08:52:44;;;;;;;16.27;7.90;;;;;;;0.93;63.39;95864.41;5055249;28;20475;-82
2022/03/01 08:55:10;;;;;;;18.63;8.65;;;;;;;0.00;62.51;95704.91;5053903;28;20043;-83
2022/03/01 08:57:37;;;;;;;14.07;7.93;;;;;;;1.00;63.13;95844.31;5054645;28;20104;-82
2022/03/01 09:00:08;;;;;;;18.75;9.13;;;;;;;0.42;63.50;95734.34;5036887;28;20067;-82
2022/03/01 09:02:34;;;;;;;16.58;8.13;;;;;;;1.06;63.55;95854.00;5036033;28;20033;-82
2022/03/01 09:04:59;;;;;;;21.45;8.95;;;;;;;0.34;63.03;95753.59;5053029;28;20120;-81
2022/03/01 09:07:25;;;;;;;15.63;7.78;;;;;;;-0.12;63.52;95682.19;5052536;28;20048;-82
2022/03/01 09:09:51;;;;;;;16.88;7.75;;;;;;;0.82;63.68;95813.56;5054836;28;20476;-81
2022/03/01 09:12:16;;;;;;;15.15;7.10;;;;;;;1.01;63.67;95830.28;5053669;28;20393;-81
2022/03/01 09:14:42;;;;;;;12.40;6.28;;;;;;;0.36;62.66;95748.19;5051391;28;20044;-82
2022/03/01 09:17:10;;;;;;;12.52;6.85;;;;;;;-0.54;62.42;95584.22;5051929;28;20029;-82
2022/03/01 09:19:36;;;;;;;13.82;7.45;;;;;;;0.43;63.47;95720.31;5035386;28;20701;-82
2022/03/01 09:22:02;;;;;;;13.23;7.00;;;;;;;0.92;62.40;95823.63;5035909;28;20032;-82
2022/03/01 09:24:28;;;;;;;15.60;8.23;;;;;;;0.43;62.65;95706.44;5055516;28;20032;-82
2022/03/01 09:26:54;;;;;;;12.70;7.60;;;;;;;0.75;62.78;95770.97;5037583;28;20029;-82
2022/03/01 09:29:20;;;;;;;12.80;7.30;;;;;;;0.70;63.16;95747.25;5055938;28;20029;-82
2022/03/01 09:31:45;;;;;;;15.38;7.07;;;;;;;-0.09;64.07;95630.47;5054161;28;20045;-82
2022/03/01 09:34:10;;;;;;;17.52;7.75;;;;;;;0.90;64.08;95787.28;5035063;28;20470;-82
2022/03/01 09:36:39;;;;;;;15.75;6.93;;;;;;;1.30;62.81;95831.75;5053565;28;20656;-81
2022/03/01 09:39:04;;;;;;;21.58;8.15;;;;;;;0.84;62.70;95740.25;5053511;28;20060;-82
2022/03/01 09:41:33;;;;;;;13.65;7.38;;;;;;;0.83;63.18;95759.53;5055540;28;20069;-82
2022/03/01 09:43:59;;;;;;;14.55;6.82;;;;;;;1.00;62.33;95758.13;5036053;28;20503;-83
2022/03/01 09:46:25;;;;;;;27.27;8.38;;;;;;;0.94;62.53;95725.00;5037657;28;20147;-82
2022/03/01 09:48:50;;;;;;;14.75;8.30;;;;;;;0.95;62.48;95706.50;5053939;28;20036;-83
2022/03/01 09:51:19;;;;;;;19.70;9.13;;;;;;;2.07;62.19;95855.44;5054601;28;20033;-83
2022/03/01 09:53:47;;;;;;;17.58;9.45;;;;;;;1.81;63.14;95829.31;5036217;28;20052;-82
2022/03/01 09:56:13;;;;;;;18.58;7.53;;;;;;;2.15;61.60;95844.75;5054935;28;20041;-82
2022/03/01 09:58:39;;;;;;;17.45;8.00;;;;;;;0.77;61.06;95597.44;5052640;28;20039;-82
2022/03/01 10:01:05;;;;;;;13.82;8.02;;;;;;;1.61;60.89;95742.22;5055330;28;20029;-82
2022/03/01 10:03:34;;;;;;;14.88;8.30;;;;;;;2.40;61.94;95846.72;5035341;28;20048;-82
2022/03/01 10:06:08;;;;;;;15.70;8.48;;;;;;;2.24;62.01;95840.91;5053222;28;20090;-82
2022/03/01 10:08:34;;;;;;;19.35;9.63;;;;;;;2.26;60.24;95851.19;5054851;28;20037;-82
2022/03/01 10:10:59;;;;;;;19.15;10.98;;;;;;;2.00;60.75;95833.72;5036975;28;20052;-83
2022/03/01 10:13:32;;;;;;;18.60;10.85;;;;;;;1.41;61.83;95744.88;5058490;28;20526;-83
2022/03/01 10:16:12;;;;;;;19.83;9.98;;;;;;;1.86;62.13;95808.59;5056549;28;20055;-83
2022/03/01 10:18:52;;;;;;;22.52;10.10;;;;;;;1.91;61.98;95780.00;5057618;28;20032;-84
2022/03/01 10:21:20;;;;;;;21.85;9.93;;;;;;;1.06;61.64;95643.22;5039698;28;20120;-84
2022/03/01 10:23:54;;;;;;;23.60;8.70;;;;;;;1.58;61.47;95726.97;5056570;28;20039;-84
2022/03/01 10:26:31;;;;;;;16.60;7.70;;;;;;;2.07;61.81;95831.88;5042716;28;20060;-85
2022/03/01 10:28:58;;;;;;;16.65;7.38;;;;;;;1.18;60.95;95708.72;5044088;28;20356;-84
2022/03/01 10:31:29;;;;;;;18.17;7.63;;;;;;;1.85;62.38;95804.34;5042349;28;20469;-86
2022/03/01 10:34:00;;;;;;;24.50;8.50;;;;;;;2.15;61.59;95828.25;5042504;28;20025;-85
2022/03/01 10:36:48;;;;;;;15.65;7.97;;;;;;;1.88;61.38;95783.03;5039772;28;20483;-85
2022/03/01 10:39:25;;;;;;;15.68;8.63;;;;;;;0.70;61.72;95565.31;5059437;28;20061;-85
2022/03/01 10:41:51;;;;;;;17.00;7.68;;;;;;;2.42;61.42;95837.66;5039353;28;20040;-85
2022/03/01 10:44:25;;;;;;;13.60;8.25;;;;;;;0.10;62.65;95456.78;5057352;28;20132;-85
2022/03/01 10:46:52;;;;;;;16.98;8.25;;;;;;;2.64;64.11;95815.41;5040290;28;20403;-84
2022/03/01 10:49:23;;;;;;;22.23;9.30;;;;;;;2.78;62.44;95805.66;5057645;28;20032;-82
2022/03/01 10:51:54;;;;;;;37.38;11.85;;;;;;;1.52;62.42;95618.81;5037942;28;20032;-82
2022/03/01 10:54:40;;;;;;;33.45;11.20;;;;;;;2.88;63.71;95803.41;5056266;28;20047;-82
2022/03/01 10:57:25;;;;;;;18.70;10.05;;;;;;;2.13;60.73;95670.66;5057510;28;20069;-81
2022/03/01 10:59:52;;;;;;;10.43;6.78;;;;;;;2.67;58.95;95751.34;5057990;28;20041;-82
2022/03/01 11:02:18;;;;;;;13.95;7.70;;;;;;;1.89;59.15;95641.59;5038548;28;20081;-82
2022/03/01 11:04:45;;;;;;;14.63;8.00;;;;;;;1.43;60.21;95571.19;5040795;28;20056;-81
2022/03/01 11:07:12;;;;;;;17.48;9.02;;;;;;;2.77;62.37;95793.56;5057983;28;20113;-82
2022/03/01 11:09:38;;;;;;;17.00;8.85;;;;;;;2.32;60.46;95694.13;5058609;28;20040;-82
2022/03/01 11:12:08;;;;;;;17.63;7.80;;;;;;;1.65;59.23;95605.69;5040313;28;20132;-82
2022/03/01 11:14:52;;;;;;;20.50;8.43;;;;;;;2.90;59.36;95796.13;5043928;28;20029;-82
2022/03/01 11:17:43;;;;;;;17.45;8.25;;;;;;;2.78;59.31;95782.09;5056267;28;20096;-82
2022/03/01 11:20:22;;;;;;;15.63;7.50;;;;;;;2.51;59.52;95707.31;5059810;28;20098;-83
2022/03/01 11:22:50;;;;;;;13.02;7.05;;;;;;;2.07;57.59;95653.16;5054718;28;20029;-84